首页
METAR-TAF:

METAR-TAF

机场 :

贝娜齐尔·布托国际机场

伊斯兰堡, 巴基斯坦

纬度: 33-37N, 经度: 073-06E, 海拔: 507米

当前天气观测

该预报发布于29分钟前的02:00 UTC
风速4节,风向
温度 27°C
湿度 84%
气压 1003 hPa
能見度: 4000
轻雾

METAR: OPRN 190200Z 36004KT 4000 BR NSC 27/24 Q1003 NOSIG RMK A2963

时间: 07:29 (02:29 UTC)

预报

该预报发布于4小时和59分钟前的21:30 UTC
预报有效从19日的 00点(UTC)到 20日的 06点(UTC)
风速10节,风向东南
能見度: 7000
散云层高于4000英尺
散云层高于10000英尺
短暂存在
从 19日的 00点(UTC)到 19日的 03点(UTC)
风速10节,风向东南,有时为20节阵风
能見度: 3000
多云层高于4000英尺
多云层高于10000英尺
雷暴, 雨
几率 30% :
短暂存在
从 19日的 10点(UTC)到 19日的 14点(UTC)
风速10节,风向西南,有时为25节阵风
能見度: 4000
散云层高于4000英尺
附近有雷暴
短暂存在
从 19日的 20点(UTC)到 19日的 24点(UTC)
风速10节,风向东南,有时为25节阵风
能見度: 3000
散云层高于4000英尺
多云层高于10000英尺
雷暴, 雨

TAF: OPRN 182130Z 1900/2006 13010KT 7000 SCT040 SCT100 TEMPO 1900/1903 13010G20KT 3000 TSRA FEW030TCU/CB BKN040 BKN100 PROB30 TEMPO 1910/1914 23010G25KT 4000 VCTS FEW030TCU/CB SCT040 TEMPO 1920/1924 13010G25KT 3000 TSRA FEW030TCU/CB SCT040 BKN100

超过4000个机场的气象观测和天气预报(METAR&TAF报告)。

可查询的气象台以黄色和红色小点在地图上表示。

将鼠标移到小点上方,可查看气象台名称。

然后点击查看天气观测和预报。

如需切换地图:点击带黑十字的绿色按钮放大地图;点击带横线的绿色按钮缩小地图;或者点击绿色箭头查看邻近地区的地图。


METAR-TAF: